sensor_id;sensor_type;location;lat;lon;timestamp;temperature;humidity
28460;DHT22;32528;45.712;9.192;2022-08-19T00:00:37;19.80;99.90
28460;DHT22;32528;45.712;9.192;2022-08-19T00:02:38;19.80;99.90
28460;DHT22;32528;45.712;9.192;2022-08-19T00:04:39;19.80;99.90
28460;DHT22;32528;45.712;9.192;2022-08-19T00:06:41;19.80;99.90
28460;DHT22;32528;45.712;9.192;2022-08-19T00:08:42;19.70;99.90
28460;DHT22;32528;45.712;9.192;2022-08-19T00:10:43;19.70;99.90
28460;DHT22;32528;45.712;9.192;2022-08-19T00:12:44;19.80;99.90
28460;DHT22;32528;45.712;9.192;2022-08-19T00:14:45;19.70;99.90
28460;DHT22;32528;45.712;9.192;2022-08-19T00:16:46;19.70;99.90
28460;DHT22;32528;45.712;9.192;2022-08-19T00:18:47;19.60;99.90
28460;DHT22;32528;45.712;9.192;2022-08-19T00:20:48;19.70;99.90
28460;DHT22;32528;45.712;9.192;2022-08-19T00:22:49;19.60;99.90
28460;DHT22;32528;45.712;9.192;2022-08-19T00:24:49;19.70;99.90
28460;DHT22;32528;45.712;9.192;2022-08-19T00:26:50;19.60;99.90
28460;DHT22;32528;45.712;9.192;2022-08-19T00:28:51;19.70;99.90
28460;DHT22;32528;45.712;9.192;2022-08-19T00:30:51;19.70;99.90
28460;DHT22;32528;45.712;9.192;2022-08-19T00:32:53;19.70;99.90
28460;DHT22;32528;45.712;9.192;2022-08-19T00:34:56;19.80;99.90
28460;DHT22;32528;45.712;9.192;2022-08-19T00:36:57;19.70;99.90
28460;DHT22;32528;45.712;9.192;2022-08-19T00:38:58;19.80;99.90
28460;DHT22;32528;45.712;9.192;2022-08-19T00:40:58;19.80;99.90
28460;DHT22;32528;45.712;9.192;2022-08-19T00:42:59;19.80;99.90
28460;DHT22;32528;45.712;9.192;2022-08-19T00:45:00;19.80;99.90
28460;DHT22;32528;45.712;9.192;2022-08-19T00:47:02;19.80;99.90
28460;DHT22;32528;45.712;9.192;2022-08-19T00:49:06;19.80;99.90
28460;DHT22;32528;45.712;9.192;2022-08-19T00:51:08;19.80;99.90
28460;DHT22;32528;45.712;9.192;2022-08-19T00:53:12;19.80;99.90
28460;DHT22;32528;45.712;9.192;2022-08-19T00:55:19;19.80;99.90
28460;DHT22;32528;45.712;9.192;2022-08-19T00:57:22;19.80;99.90
28460;DHT22;32528;45.712;9.192;2022-08-19T00:59:23;19.80;99.90
28460;DHT22;32528;45.712;9.192;2022-08-19T01:01:26;19.80;99.90
28460;DHT22;32528;45.712;9.192;2022-08-19T01:03:27;19.80;99.90
28460;DHT22;32528;45.712;9.192;2022-08-19T01:05:28;19.90;99.90
28460;DHT22;32528;45.712;9.192;2022-08-19T01:07:29;19.90;99.90
28460;DHT22;32528;45.712;9.192;2022-08-19T01:09:30;19.80;99.90
28460;DHT22;32528;45.712;9.192;2022-08-19T01:11:31;19.80;99.90
28460;DHT22;32528;45.712;9.192;2022-08-19T01:13:33;19.80;99.90
28460;DHT22;32528;45.712;9.192;2022-08-19T01:15:56;19.70;99.90
28460;DHT22;32528;45.712;9.192;2022-08-19T01:17:55;19.70;99.90
28460;DHT22;32528;45.712;9.192;2022-08-19T01:19:57;19.70;99.90
28460;DHT22;32528;45.712;9.192;2022-08-19T01:22:00;19.70;99.90
28460;DHT22;32528;45.712;9.192;2022-08-19T01:24:02;19.70;99.90
28460;DHT22;32528;45.712;9.192;2022-08-19T01:26:03;19.60;99.90
28460;DHT22;32528;45.712;9.192;2022-08-19T01:28:04;19.70;99.90
28460;DHT22;32528;45.712;9.192;2022-08-19T01:30:05;19.60;99.90
28460;DHT22;32528;45.712;9.192;2022-08-19T01:32:07;19.60;99.90
28460;DHT22;32528;45.712;9.192;2022-08-19T01:34:09;19.60;99.90
28460;DHT22;32528;45.712;9.192;2022-08-19T01:36:11;19.60;99.90
28460;DHT22;32528;45.712;9.192;2022-08-19T01:38:20;19.60;99.90
28460;DHT22;32528;45.712;9.192;2022-08-19T01:40:23;19.60;99.90
28460;DHT22;32528;45.712;9.192;2022-08-19T01:42:24;19.60;99.90
28460;DHT22;32528;45.712;9.192;2022-08-19T01:44:24;19.60;99.90
28460;DHT22;32528;45.712;9.192;2022-08-19T01:46:25;19.60;99.90
28460;DHT22;32528;45.712;9.192;2022-08-19T01:48:26;19.60;99.90
28460;DHT22;32528;45.712;9.192;2022-08-19T01:50:30;19.60;99.90
28460;DHT22;32528;45.712;9.192;2022-08-19T01:52:31;19.50;99.90
28460;DHT22;32528;45.712;9.192;2022-08-19T01:54:32;19.50;99.90
28460;DHT22;32528;45.712;9.192;2022-08-19T01:56:33;19.50;99.90
28460;DHT22;32528;45.712;9.192;2022-08-19T01:58:36;19.40;99.90
28460;DHT22;32528;45.712;9.192;2022-08-19T02:00:38;19.40;99.90
28460;DHT22;32528;45.712;9.192;2022-08-19T02:02:39;19.40;99.90
28460;DHT22;32528;45.712;9.192;2022-08-19T02:04:40;19.40;99.90
28460;DHT22;32528;45.712;9.192;2022-08-19T02:06:41;19.40;99.90
28460;DHT22;32528;45.712;9.192;2022-08-19T02:08:41;19.50;99.90
28460;DHT22;32528;45.712;9.192;2022-08-19T02:10:43;19.50;99.90
28460;DHT22;32528;45.712;9.192;2022-08-19T02:12:44;19.50;99.90
28460;DHT22;32528;45.712;9.192;2022-08-19T02:14:45;19.50;99.90
28460;DHT22;32528;45.712;9.192;2022-08-19T02:16:46;19.50;99.90
28460;DHT22;32528;45.712;9.192;2022-08-19T02:18:47;19.50;99.90
28460;DHT22;32528;45.712;9.192;2022-08-19T02:20:49;19.60;99.90
28460;DHT22;32528;45.712;9.192;2022-08-19T02:22:49;19.60;99.90
28460;DHT22;32528;45.712;9.192;2022-08-19T02:24:51;19.60;99.90
28460;DHT22;32528;45.712;9.192;2022-08-19T02:26:52;19.70;99.90
28460;DHT22;32528;45.712;9.192;2022-08-19T02:28:53;19.60;99.90
28460;DHT22;32528;45.712;9.192;2022-08-19T02:30:53;19.60;99.90
28460;DHT22;32528;45.712;9.192;2022-08-19T02:32:54;19.60;99.90
28460;DHT22;32528;45.712;9.192;2022-08-19T02:34:54;19.60;99.90
28460;DHT22;32528;45.712;9.192;2022-08-19T02:36:55;19.50;99.90
28460;DHT22;32528;45.712;9.192;2022-08-19T02:38:56;19.50;99.90
28460;DHT22;32528;45.712;9.192;2022-08-19T02:41:07;19.40;99.90
28460;DHT22;32528;45.712;9.192;2022-08-19T02:43:10;19.30;99.90
28460;DHT22;32528;45.712;9.192;2022-08-19T02:45:13;19.30;99.90
28460;DHT22;32528;45.712;9.192;2022-08-19T02:47:14;19.20;99.90
28460;DHT22;32528;45.712;9.192;2022-08-19T02:49:15;19.20;99.90
28460;DHT22;32528;45.712;9.192;2022-08-19T02:51:17;19.10;99.90
28460;DHT22;32528;45.712;9.192;2022-08-19T02:53:18;19.10;99.90
28460;DHT22;32528;45.712;9.192;2022-08-19T02:55:19;19.10;99.90
28460;DHT22;32528;45.712;9.192;2022-08-19T02:57:21;19.00;99.90
28460;DHT22;32528;45.712;9.192;2022-08-19T02:59:22;19.00;99.90
28460;DHT22;32528;45.712;9.192;2022-08-19T03:01:24;19.00;99.90
28460;DHT22;32528;45.712;9.192;2022-08-19T03:03:24;19.00;99.90
28460;DHT22;32528;45.712;9.192;2022-08-19T03:05:25;19.00;99.90
28460;DHT22;32528;45.712;9.192;2022-08-19T03:07:27;19.00;99.90
28460;DHT22;32528;45.712;9.192;2022-08-19T03:09:27;19.00;99.90
28460;DHT22;32528;45.712;9.192;2022-08-19T03:11:30;18.90;99.90
28460;DHT22;32528;45.712;9.192;2022-08-19T03:13:31;18.90;99.90
28460;DHT22;32528;45.712;9.192;2022-08-19T03:15:33;18.90;99.90
28460;DHT22;32528;45.712;9.192;2022-08-19T03:17:34;18.90;99.90
28460;DHT22;32528;45.712;9.192;2022-08-19T03:19:35;18.90;99.90
28460;DHT22;32528;45.712;9.192;2022-08-19T03:21:35;18.90;99.90
28460;DHT22;32528;45.712;9.192;2022-08-19T03:23:36;19.00;99.90
28460;DHT22;32528;45.712;9.192;2022-08-19T03:25:38;19.00;99.90
28460;DHT22;32528;45.712;9.192;2022-08-19T03:27:40;19.00;99.90
28460;DHT22;32528;45.712;9.192;2022-08-19T03:29:40;19.00;99.90
28460;DHT22;32528;45.712;9.192;2022-08-19T03:31:42;19.00;99.90
28460;DHT22;32528;45.712;9.192;2022-08-19T03:33:43;19.00;99.90
28460;DHT22;32528;45.712;9.192;2022-08-19T03:35:44;19.00;99.90
28460;DHT22;32528;45.712;9.192;2022-08-19T03:37:45;19.00;99.90
28460;DHT22;32528;45.712;9.192;2022-08-19T03:39:45;19.00;99.90
28460;DHT22;32528;45.712;9.192;2022-08-19T03:41:47;19.00;99.90
28460;DHT22;32528;45.712;9.192;2022-08-19T03:43:49;19.00;99.90
28460;DHT22;32528;45.712;9.192;2022-08-19T03:46:06;19.10;99.90
28460;DHT22;32528;45.712;9.192;2022-08-19T03:48:07;19.10;99.90
28460;DHT22;32528;45.712;9.192;2022-08-19T03:50:08;19.10;99.90
28460;DHT22;32528;45.712;9.192;2022-08-19T03:52:09;19.10;99.90
28460;DHT22;32528;45.712;9.192;2022-08-19T03:54:11;19.10;99.90
28460;DHT22;32528;45.712;9.192;2022-08-19T03:56:12;19.10;99.90
28460;DHT22;32528;45.712;9.192;2022-08-19T03:58:13;19.10;99.90
28460;DHT22;32528;45.712;9.192;2022-08-19T04:00:14;19.00;99.90
28460;DHT22;32528;45.712;9.192;2022-08-19T04:02:14;19.00;99.90
28460;DHT22;32528;45.712;9.192;2022-08-19T04:04:15;19.10;99.90
28460;DHT22;32528;45.712;9.192;2022-08-19T04:06:17;19.10;99.90
28460;DHT22;32528;45.712;9.192;2022-08-19T04:08:18;19.10;99.90
28460;DHT22;32528;45.712;9.192;2022-08-19T04:10:21;19.00;99.90
28460;DHT22;32528;45.712;9.192;2022-08-19T04:12:21;19.10;99.90
28460;DHT22;32528;45.712;9.192;2022-08-19T04:14:24;19.10;99.90
28460;DHT22;32528;45.712;9.192;2022-08-19T04:16:25;19.10;99.90
28460;DHT22;32528;45.712;9.192;2022-08-19T04:18:29;19.10;99.90
28460;DHT22;32528;45.712;9.192;2022-08-19T04:20:38;19.00;99.90
28460;DHT22;32528;45.712;9.192;2022-08-19T04:22:38;19.10;99.90
28460;DHT22;32528;45.712;9.192;2022-08-19T04:24:39;19.10;99.90
28460;DHT22;32528;45.712;9.192;2022-08-19T04:26:39;19.10;99.90
28460;DHT22;32528;45.712;9.192;2022-08-19T04:28:41;19.10;99.90
28460;DHT22;32528;45.712;9.192;2022-08-19T04:30:43;19.10;99.90
28460;DHT22;32528;45.712;9.192;2022-08-19T04:32:44;19.10;99.90
28460;DHT22;32528;45.712;9.192;2022-08-19T04:34:44;19.10;99.90
28460;DHT22;32528;45.712;9.192;2022-08-19T04:36:45;19.10;99.90
28460;DHT22;32528;45.712;9.192;2022-08-19T04:38:46;19.10;99.90
28460;DHT22;32528;45.712;9.192;2022-08-19T04:40:48;19.30;99.90
28460;DHT22;32528;45.712;9.192;2022-08-19T04:43:07;19.60;99.90
28460;DHT22;32528;45.712;9.192;2022-08-19T04:45:12;20.30;99.90
28460;DHT22;32528;45.712;9.192;2022-08-19T04:47:13;20.80;99.90
28460;DHT22;32528;45.712;9.192;2022-08-19T04:49:14;21.10;99.90
28460;DHT22;32528;45.712;9.192;2022-08-19T04:51:15;20.90;99.90
28460;DHT22;32528;45.712;9.192;2022-08-19T04:53:17;21.00;99.90
28460;DHT22;32528;45.712;9.192;2022-08-19T04:55:18;21.30;99.90
28460;DHT22;32528;45.712;9.192;2022-08-19T04:57:19;21.60;99.90
28460;DHT22;32528;45.712;9.192;2022-08-19T04:59:20;21.90;99.60
28460;DHT22;32528;45.712;9.192;2022-08-19T05:01:26;22.20;99.10
28460;DHT22;32528;45.712;9.192;2022-08-19T05:03:28;22.30;98.90
28460;DHT22;32528;45.712;9.192;2022-08-19T05:05:33;22.40;98.80
28460;DHT22;32528;45.712;9.192;2022-08-19T05:07:34;22.50;98.40
28460;DHT22;32528;45.712;9.192;2022-08-19T05:09:35;22.60;98.10
28460;DHT22;32528;45.712;9.192;2022-08-19T05:11:36;22.60;98.00
28460;DHT22;32528;45.712;9.192;2022-08-19T05:13:40;22.70;98.10
28460;DHT22;32528;45.712;9.192;2022-08-19T05:15:41;22.70;98.00
28460;DHT22;32528;45.712;9.192;2022-08-19T05:17:42;22.70;98.00
28460;DHT22;32528;45.712;9.192;2022-08-19T05:20:03;22.70;98.00
28460;DHT22;32528;45.712;9.192;2022-08-19T05:22:23;22.70;98.00
28460;DHT22;32528;45.712;9.192;2022-08-19T05:24:35;22.70;98.00
28460;DHT22;32528;45.712;9.192;2022-08-19T05:26:36;22.80;97.80
28460;DHT22;32528;45.712;9.192;2022-08-19T05:28:37;22.90;97.70
28460;DHT22;32528;45.712;9.192;2022-08-19T05:30:38;22.80;97.50
28460;DHT22;32528;45.712;9.192;2022-08-19T05:32:40;22.90;97.60
28460;DHT22;32528;45.712;9.192;2022-08-19T05:34:41;22.90;97.50
28460;DHT22;32528;45.712;9.192;2022-08-19T05:36:42;23.00;97.60
28460;DHT22;32528;45.712;9.192;2022-08-19T05:38:45;23.00;97.50
28460;DHT22;32528;45.712;9.192;2022-08-19T05:40:47;22.90;97.50
28460;DHT22;32528;45.712;9.192;2022-08-19T05:42:49;22.80;97.80
28460;DHT22;32528;45.712;9.192;2022-08-19T05:44:50;22.40;98.50
28460;DHT22;32528;45.712;9.192;2022-08-19T05:46:51;22.10;99.20
28460;DHT22;32528;45.712;9.192;2022-08-19T05:48:55;21.90;99.70
28460;DHT22;32528;45.712;9.192;2022-08-19T05:50:56;21.70;99.90
28460;DHT22;32528;45.712;9.192;2022-08-19T05:52:58;21.60;99.90
28460;DHT22;32528;45.712;9.192;2022-08-19T05:54:59;21.50;99.90
28460;DHT22;32528;45.712;9.192;2022-08-19T05:57:00;21.50;99.90
28460;DHT22;32528;45.712;9.192;2022-08-19T05:59:01;21.50;99.90
28460;DHT22;32528;45.712;9.192;2022-08-19T06:01:02;21.40;99.90
28460;DHT22;32528;45.712;9.192;2022-08-19T06:03:05;21.40;99.90
28460;DHT22;32528;45.712;9.192;2022-08-19T06:05:06;21.40;99.90
28460;DHT22;32528;45.712;9.192;2022-08-19T06:07:09;21.40;99.90
28460;DHT22;32528;45.712;9.192;2022-08-19T06:09:09;21.40;99.90
28460;DHT22;32528;45.712;9.192;2022-08-19T06:13:14;21.40;99.90
28460;DHT22;32528;45.712;9.192;2022-08-19T06:15:15;21.50;99.90
28460;DHT22;32528;45.712;9.192;2022-08-19T06:17:15;21.50;99.90
28460;DHT22;32528;45.712;9.192;2022-08-19T06:19:16;21.60;99.90
28460;DHT22;32528;45.712;9.192;2022-08-19T06:21:21;21.60;99.90
28460;DHT22;32528;45.712;9.192;2022-08-19T06:23:22;21.70;99.90
28460;DHT22;32528;45.712;9.192;2022-08-19T06:25:23;21.70;99.90
28460;DHT22;32528;45.712;9.192;2022-08-19T06:27:24;21.70;99.90
28460;DHT22;32528;45.712;9.192;2022-08-19T06:29:25;21.70;99.90
28460;DHT22;32528;45.712;9.192;2022-08-19T06:31:27;21.70;99.90
28460;DHT22;32528;45.712;9.192;2022-08-19T06:33:28;21.70;99.90
28460;DHT22;32528;45.712;9.192;2022-08-19T06:35:28;21.70;99.90
28460;DHT22;32528;45.712;9.192;2022-08-19T06:37:29;21.70;99.90
28460;DHT22;32528;45.712;9.192;2022-08-19T06:39:31;21.70;99.90
28460;DHT22;32528;45.712;9.192;2022-08-19T06:41:36;21.70;99.90
28460;DHT22;32528;45.712;9.192;2022-08-19T06:43:37;21.80;99.90
28460;DHT22;32528;45.712;9.192;2022-08-19T06:45:38;21.70;99.90
28460;DHT22;32528;45.712;9.192;2022-08-19T06:47:38;21.80;99.90
28460;DHT22;32528;45.712;9.192;2022-08-19T06:49:39;21.90;99.90
28460;DHT22;32528;45.712;9.192;2022-08-19T06:51:41;22.10;99.90
28460;DHT22;32528;45.712;9.192;2022-08-19T06:53:42;22.20;99.70
28460;DHT22;32528;45.712;9.192;2022-08-19T06:55:47;22.40;99.30
28460;DHT22;32528;45.712;9.192;2022-08-19T06:57:47;22.80;99.90
28460;DHT22;32528;45.712;9.192;2022-08-19T06:59:48;23.10;99.40
28460;DHT22;32528;45.712;9.192;2022-08-19T07:01:50;23.30;98.50
28460;DHT22;32528;45.712;9.192;2022-08-19T07:03:51;23.50;98.20
28460;DHT22;32528;45.712;9.192;2022-08-19T07:05:51;23.60;97.20
28460;DHT22;32528;45.712;9.192;2022-08-19T07:07:53;23.60;97.40
28460;DHT22;32528;45.712;9.192;2022-08-19T07:09:53;23.40;97.40
28460;DHT22;32528;45.712;9.192;2022-08-19T07:11:55;23.40;97.20
28460;DHT22;32528;45.712;9.192;2022-08-19T07:13:56;23.40;97.40
28460;DHT22;32528;45.712;9.192;2022-08-19T07:15:57;23.40;97.50
28460;DHT22;32528;45.712;9.192;2022-08-19T07:17:58;23.40;97.60
28460;DHT22;32528;45.712;9.192;2022-08-19T07:19:58;23.30;97.40
28460;DHT22;32528;45.712;9.192;2022-08-19T07:22:00;23.20;97.40
28460;DHT22;32528;45.712;9.192;2022-08-19T07:24:01;23.10;97.40
28460;DHT22;32528;45.712;9.192;2022-08-19T07:26:06;23.10;97.60
28460;DHT22;32528;45.712;9.192;2022-08-19T07:28:06;23.00;97.60
28460;DHT22;32528;45.712;9.192;2022-08-19T07:30:10;23.10;97.60
28460;DHT22;32528;45.712;9.192;2022-08-19T07:32:12;23.20;97.10
28460;DHT22;32528;45.712;9.192;2022-08-19T07:34:12;23.30;96.90
28460;DHT22;32528;45.712;9.192;2022-08-19T07:36:16;23.40;97.00
28460;DHT22;32528;45.712;9.192;2022-08-19T07:38:17;23.60;96.40
28460;DHT22;32528;45.712;9.192;2022-08-19T07:40:18;23.60;96.40
28460;DHT22;32528;45.712;9.192;2022-08-19T07:42:18;23.70;96.20
28460;DHT22;32528;45.712;9.192;2022-08-19T07:44:21;23.80;95.80
28460;DHT22;32528;45.712;9.192;2022-08-19T07:46:23;23.80;95.70
28460;DHT22;32528;45.712;9.192;2022-08-19T07:48:24;24.10;95.90
28460;DHT22;32528;45.712;9.192;2022-08-19T07:50:25;24.30;95.40
28460;DHT22;32528;45.712;9.192;2022-08-19T07:52:26;24.60;95.00
28460;DHT22;32528;45.712;9.192;2022-08-19T07:54:27;24.70;93.90
28460;DHT22;32528;45.712;9.192;2022-08-19T07:56:28;24.70;93.70
28460;DHT22;32528;45.712;9.192;2022-08-19T07:58:33;24.70;93.30
28460;DHT22;32528;45.712;9.192;2022-08-19T08:00:35;24.80;92.70
28460;DHT22;32528;45.712;9.192;2022-08-19T08:02:36;24.80;92.00
28460;DHT22;32528;45.712;9.192;2022-08-19T08:04:40;24.90;91.70
28460;DHT22;32528;45.712;9.192;2022-08-19T08:06:59;24.90;92.20
28460;DHT22;32528;45.712;9.192;2022-08-19T08:09:21;24.90;93.50
28460;DHT22;32528;45.712;9.192;2022-08-19T08:11:22;24.90;93.50
28460;DHT22;32528;45.712;9.192;2022-08-19T08:13:23;25.10;93.70
28460;DHT22;32528;45.712;9.192;2022-08-19T08:15:24;25.10;93.00
28460;DHT22;32528;45.712;9.192;2022-08-19T08:17:26;25.20;93.50
28460;DHT22;32528;45.712;9.192;2022-08-19T08:19:28;25.30;93.50
28460;DHT22;32528;45.712;9.192;2022-08-19T08:21:32;25.40;93.20
28460;DHT22;32528;45.712;9.192;2022-08-19T08:23:32;25.30;93.40
28460;DHT22;32528;45.712;9.192;2022-08-19T08:25:34;25.30;92.90
28460;DHT22;32528;45.712;9.192;2022-08-19T08:27:36;25.10;92.90
28460;DHT22;32528;45.712;9.192;2022-08-19T08:29:36;25.10;92.80
28460;DHT22;32528;45.712;9.192;2022-08-19T08:31:42;25.20;91.80
28460;DHT22;32528;45.712;9.192;2022-08-19T08:33:43;25.10;91.70
28460;DHT22;32528;45.712;9.192;2022-08-19T08:35:43;25.20;91.70
28460;DHT22;32528;45.712;9.192;2022-08-19T08:37:46;25.30;92.30
28460;DHT22;32528;45.712;9.192;2022-08-19T08:39:47;25.20;91.80
28460;DHT22;32528;45.712;9.192;2022-08-19T08:41:57;25.20;91.70
28460;DHT22;32528;45.712;9.192;2022-08-19T08:44:00;25.20;92.00
28460;DHT22;32528;45.712;9.192;2022-08-19T08:48:46;25.30;91.70
28460;DHT22;32528;45.712;9.192;2022-08-19T08:50:48;25.50;91.90
28460;DHT22;32528;45.712;9.192;2022-08-19T08:52:53;25.70;91.60
28460;DHT22;32528;45.712;9.192;2022-08-19T08:54:57;25.60;91.30
28460;DHT22;32528;45.712;9.192;2022-08-19T08:56:58;25.60;91.30
28460;DHT22;32528;45.712;9.192;2022-08-19T09:01:00;25.80;91.80
28460;DHT22;32528;45.712;9.192;2022-08-19T09:03:02;25.90;91.40
28460;DHT22;32528;45.712;9.192;2022-08-19T09:05:03;25.90;91.40
28460;DHT22;32528;45.712;9.192;2022-08-19T09:09:11;26.00;90.70
28460;DHT22;32528;45.712;9.192;2022-08-19T09:11:19;26.10;90.80
28460;DHT22;32528;45.712;9.192;2022-08-19T09:13:36;26.00;90.70
28460;DHT22;32528;45.712;9.192;2022-08-19T09:15:53;26.20;90.70
28460;DHT22;32528;45.712;9.192;2022-08-19T09:17:59;26.00;90.60
28460;DHT22;32528;45.712;9.192;2022-08-19T09:22:07;25.70;91.10
28460;DHT22;32528;45.712;9.192;2022-08-19T09:24:07;25.80;91.10
28460;DHT22;32528;45.712;9.192;2022-08-19T09:26:09;25.80;90.20
28460;DHT22;32528;45.712;9.192;2022-08-19T09:28:09;25.80;90.20
28460;DHT22;32528;45.712;9.192;2022-08-19T09:30:12;25.80;90.10
28460;DHT22;32528;45.712;9.192;2022-08-19T09:32:13;25.80;90.10
28460;DHT22;32528;45.712;9.192;2022-08-19T09:34:14;25.90;91.00
28460;DHT22;32528;45.712;9.192;2022-08-19T09:36:16;25.80;90.40
28460;DHT22;32528;45.712;9.192;2022-08-19T09:38:18;25.90;89.50
28460;DHT22;32528;45.712;9.192;2022-08-19T09:40:19;25.90;90.60
28460;DHT22;32528;45.712;9.192;2022-08-19T09:42:20;25.90;90.80
28460;DHT22;32528;45.712;9.192;2022-08-19T09:44:21;25.90;90.50
28460;DHT22;32528;45.712;9.192;2022-08-19T09:46:22;25.90;91.10
28460;DHT22;32528;45.712;9.192;2022-08-19T09:48:23;25.80;90.80
28460;DHT22;32528;45.712;9.192;2022-08-19T09:50:23;25.90;90.80
28460;DHT22;32528;45.712;9.192;2022-08-19T09:52:24;26.00;89.70
28460;DHT22;32528;45.712;9.192;2022-08-19T09:54:25;26.10;89.20
28460;DHT22;32528;45.712;9.192;2022-08-19T09:56:25;26.00;90.50
28460;DHT22;32528;45.712;9.192;2022-08-19T09:58:26;26.20;90.20
28460;DHT22;32528;45.712;9.192;2022-08-19T10:00:29;26.20;90.00
28460;DHT22;32528;45.712;9.192;2022-08-19T10:02:31;26.10;90.20
28460;DHT22;32528;45.712;9.192;2022-08-19T10:04:31;25.90;90.60
28460;DHT22;32528;45.712;9.192;2022-08-19T10:06:51;25.90;91.00
28460;DHT22;32528;45.712;9.192;2022-08-19T10:08:55;26.10;90.60
28460;DHT22;32528;45.712;9.192;2022-08-19T10:10:56;26.20;90.50
28460;DHT22;32528;45.712;9.192;2022-08-19T10:12:57;26.30;90.30
28460;DHT22;32528;45.712;9.192;2022-08-19T10:14:58;26.50;90.20
28460;DHT22;32528;45.712;9.192;2022-08-19T10:16:59;26.50;90.40
28460;DHT22;32528;45.712;9.192;2022-08-19T10:19:00;26.70;90.10
28460;DHT22;32528;45.712;9.192;2022-08-19T10:21:03;27.00;90.00
28460;DHT22;32528;45.712;9.192;2022-08-19T10:23:05;27.00;89.20
28460;DHT22;32528;45.712;9.192;2022-08-19T10:25:06;27.20;89.20
28460;DHT22;32528;45.712;9.192;2022-08-19T10:27:07;27.10;86.70
28460;DHT22;32528;45.712;9.192;2022-08-19T10:29:07;27.00;86.50
28460;DHT22;32528;45.712;9.192;2022-08-19T10:31:10;26.80;85.70
28460;DHT22;32528;45.712;9.192;2022-08-19T10:33:11;26.90;86.20
28460;DHT22;32528;45.712;9.192;2022-08-19T10:35:12;26.70;87.60
28460;DHT22;32528;45.712;9.192;2022-08-19T10:37:13;26.80;88.20
28460;DHT22;32528;45.712;9.192;2022-08-19T10:39:14;26.60;89.10
28460;DHT22;32528;45.712;9.192;2022-08-19T10:41:16;26.90;89.30
28460;DHT22;32528;45.712;9.192;2022-08-19T10:43:18;26.90;88.30
28460;DHT22;32528;45.712;9.192;2022-08-19T10:45:18;27.00;87.10
28460;DHT22;32528;45.712;9.192;2022-08-19T10:47:19;27.20;86.20
28460;DHT22;32528;45.712;9.192;2022-08-19T10:49:20;27.10;87.40
28460;DHT22;32528;45.712;9.192;2022-08-19T10:51:21;27.40;86.20
28460;DHT22;32528;45.712;9.192;2022-08-19T10:53:40;27.40;85.80
28460;DHT22;32528;45.712;9.192;2022-08-19T10:55:41;27.30;84.00
28460;DHT22;32528;45.712;9.192;2022-08-19T10:58:00;27.50;85.60
28460;DHT22;32528;45.712;9.192;2022-08-19T11:00:01;27.40;86.20
28460;DHT22;32528;45.712;9.192;2022-08-19T11:02:04;27.60;85.40
28460;DHT22;32528;45.712;9.192;2022-08-19T11:04:05;27.90;83.70
28460;DHT22;32528;45.712;9.192;2022-08-19T11:06:08;27.80;84.50
28460;DHT22;32528;45.712;9.192;2022-08-19T11:08:09;28.00;84.60
28460;DHT22;32528;45.712;9.192;2022-08-19T11:10:13;28.10;84.20
28460;DHT22;32528;45.712;9.192;2022-08-19T11:12:14;28.40;83.00
28460;DHT22;32528;45.712;9.192;2022-08-19T11:14:16;28.70;82.20
28460;DHT22;32528;45.712;9.192;2022-08-19T11:16:19;28.30;82.40
28460;DHT22;32528;45.712;9.192;2022-08-19T11:18:20;28.60;81.90
28460;DHT22;32528;45.712;9.192;2022-08-19T11:20:21;28.80;81.30
28460;DHT22;32528;45.712;9.192;2022-08-19T11:22:22;28.40;82.50
28460;DHT22;32528;45.712;9.192;2022-08-19T11:24:24;28.50;82.20
28460;DHT22;32528;45.712;9.192;2022-08-19T11:26:24;28.60;82.10
28460;DHT22;32528;45.712;9.192;2022-08-19T11:28:25;28.30;81.60
28460;DHT22;32528;45.712;9.192;2022-08-19T11:30:26;28.00;82.10
28460;DHT22;32528;45.712;9.192;2022-08-19T11:32:28;27.70;83.60
28460;DHT22;32528;45.712;9.192;2022-08-19T11:34:28;27.60;84.50
28460;DHT22;32528;45.712;9.192;2022-08-19T11:36:30;27.40;83.70
28460;DHT22;32528;45.712;9.192;2022-08-19T11:38:31;27.40;84.30
28460;DHT22;32528;45.712;9.192;2022-08-19T11:40:32;27.40;84.10
28460;DHT22;32528;45.712;9.192;2022-08-19T11:42:33;27.30;85.00
28460;DHT22;32528;45.712;9.192;2022-08-19T11:44:53;27.40;85.40
28460;DHT22;32528;45.712;9.192;2022-08-19T11:46:53;27.60;85.50
28460;DHT22;32528;45.712;9.192;2022-08-19T11:48:55;27.70;85.00
28460;DHT22;32528;45.712;9.192;2022-08-19T11:50:56;27.50;84.00
28460;DHT22;32528;45.712;9.192;2022-08-19T11:52:57;27.50;84.40
28460;DHT22;32528;45.712;9.192;2022-08-19T11:54:58;27.60;85.10
28460;DHT22;32528;45.712;9.192;2022-08-19T11:56:58;27.60;85.10
28460;DHT22;32528;45.712;9.192;2022-08-19T11:59:00;27.70;83.10
28460;DHT22;32528;45.712;9.192;2022-08-19T12:01:00;27.90;83.80
28460;DHT22;32528;45.712;9.192;2022-08-19T12:03:02;28.10;83.70
28460;DHT22;32528;45.712;9.192;2022-08-19T12:05:02;28.20;83.70
28460;DHT22;32528;45.712;9.192;2022-08-19T12:07:03;28.10;83.50
28460;DHT22;32528;45.712;9.192;2022-08-19T12:09:05;27.90;83.60
28460;DHT22;32528;45.712;9.192;2022-08-19T12:11:07;28.20;83.60
28460;DHT22;32528;45.712;9.192;2022-08-19T12:13:09;28.10;84.50
28460;DHT22;32528;45.712;9.192;2022-08-19T12:15:10;28.40;82.30
28460;DHT22;32528;45.712;9.192;2022-08-19T12:17:11;28.60;79.90
28460;DHT22;32528;45.712;9.192;2022-08-19T12:19:11;28.70;80.10
28460;DHT22;32528;45.712;9.192;2022-08-19T12:21:13;28.70;80.20
28460;DHT22;32528;45.712;9.192;2022-08-19T12:23:14;28.90;78.50
28460;DHT22;32528;45.712;9.192;2022-08-19T12:25:14;28.80;77.50
28460;DHT22;32528;45.712;9.192;2022-08-19T12:27:15;28.70;75.80
28460;DHT22;32528;45.712;9.192;2022-08-19T12:29:16;28.60;77.80
28460;DHT22;32528;45.712;9.192;2022-08-19T12:31:17;28.60;77.70
28460;DHT22;32528;45.712;9.192;2022-08-19T12:33:19;28.60;76.90
28460;DHT22;32528;45.712;9.192;2022-08-19T12:35:23;28.30;77.10
28460;DHT22;32528;45.712;9.192;2022-08-19T12:37:24;28.30;78.30
28460;DHT22;32528;45.712;9.192;2022-08-19T12:39:25;28.00;77.20
28460;DHT22;32528;45.712;9.192;2022-08-19T12:41:26;28.30;79.90
28460;DHT22;32528;45.712;9.192;2022-08-19T12:43:26;28.50;79.40
28460;DHT22;32528;45.712;9.192;2022-08-19T12:45:27;28.70;78.10
28460;DHT22;32528;45.712;9.192;2022-08-19T12:47:28;28.80;77.70
28460;DHT22;32528;45.712;9.192;2022-08-19T12:49:30;28.90;76.90
28460;DHT22;32528;45.712;9.192;2022-08-19T12:51:33;29.20;76.20
28460;DHT22;32528;45.712;9.192;2022-08-19T12:53:34;29.30;74.10
28460;DHT22;32528;45.712;9.192;2022-08-19T12:55:35;29.00;74.90
28460;DHT22;32528;45.712;9.192;2022-08-19T12:57:36;29.10;77.60
28460;DHT22;32528;45.712;9.192;2022-08-19T12:59:38;29.20;75.40
28460;DHT22;32528;45.712;9.192;2022-08-19T13:01:38;29.00;73.90